Time;durP1;ratioP1;P1;durP2;ratioP2;P2;SDS_P1;SDS_P2;PMS_P1;PMS_P2;Temp;Humidity;BMP_temperature;BMP_pressure;BME280_temperature;BME280_humidity;BME280_pressure;Samples;Min_cycle;Max_cycle;Signal;HPM_P1;HPM_P2
2023/12/04 00:02:23;;;;;;;24.42;9.80;;;;;;;-0.52;100.00;101503.03;6351617;28;20098;-70
2023/12/04 00:05:25;;;;;;;17.55;7.38;;;;;;;-0.43;100.00;101499.66;6346323;28;20359;-69
2023/12/04 00:08:26;;;;;;;22.83;8.65;;;;;;;-0.43;100.00;101495.34;6344200;28;20047;-70
2023/12/04 00:11:29;;;;;;;21.67;8.90;;;;;;;-0.47;100.00;101495.31;6352888;28;20353;-69
2023/12/04 00:14:30;;;;;;;22.13;8.85;;;;;;;-0.44;100.00;101492.75;6352970;27;20058;-70
2023/12/04 00:17:31;;;;;;;23.42;8.45;;;;;;;-0.43;100.00;101487.59;6353144;27;20043;-69
2023/12/04 00:20:33;;;;;;;23.52;8.25;;;;;;;-0.47;100.00;101483.28;6353146;28;20052;-69
2023/12/04 00:23:34;;;;;;;22.45;8.25;;;;;;;-0.42;100.00;101476.41;6352343;28;20048;-69
2023/12/04 00:26:37;;;;;;;19.85;7.68;;;;;;;-0.41;100.00;101472.09;6352888;28;20348;-69
2023/12/04 00:29:38;;;;;;;19.38;6.13;;;;;;;-0.37;100.00;101458.34;6350457;28;20066;-69
2023/12/04 00:32:39;;;;;;;17.30;8.38;;;;;;;-0.42;100.00;101457.47;6352548;28;20048;-69
2023/12/04 00:35:41;;;;;;;19.95;7.88;;;;;;;-0.46;100.00;101447.97;6352466;27;20074;-69
2023/12/04 00:38:42;;;;;;;23.33;7.25;;;;;;;-0.47;100.00;101434.22;6344258;28;20363;-69
2023/12/04 00:41:45;;;;;;;16.67;7.32;;;;;;;-0.44;100.00;101430.78;6339609;28;20052;-69
2023/12/04 00:44:46;;;;;;;17.85;7.32;;;;;;;-0.62;100.00;101426.44;6342977;28;20058;-69
2023/12/04 00:47:47;;;;;;;16.80;7.13;;;;;;;-0.64;100.00;101420.38;6346577;28;20043;-69
2023/12/04 00:50:49;;;;;;;14.57;6.45;;;;;;;-0.63;100.00;101412.69;6332255;28;20059;-69
2023/12/04 00:53:50;;;;;;;17.13;7.63;;;;;;;-0.61;100.00;101404.91;6340335;28;20055;-69
2023/12/04 00:56:53;;;;;;;22.13;8.15;;;;;;;-0.55;100.00;101407.50;6343514;28;20074;-69
2023/12/04 00:59:54;;;;;;;20.63;7.72;;;;;;;-0.54;100.00;101401.50;6340224;28;20044;-69
2023/12/04 01:02:55;;;;;;;18.35;7.68;;;;;;;-0.51;100.00;101393.75;6339433;28;20043;-69
2023/12/04 01:05:57;;;;;;;16.15;6.68;;;;;;;-0.49;100.00;101388.63;6329226;28;20345;-70
2023/12/04 01:08:58;;;;;;;23.65;8.10;;;;;;;-0.45;100.00;101392.94;6338222;28;20047;-69
2023/12/04 01:12:01;;;;;;;19.20;6.45;;;;;;;-0.44;100.00;101390.34;6351605;28;20059;-69
2023/12/04 01:15:03;;;;;;;14.68;7.15;;;;;;;-0.49;100.00;101386.91;6350687;27;20059;-68
2023/12/04 01:18:04;;;;;;;14.45;6.68;;;;;;;-0.44;100.00;101377.44;6351715;28;20458;-69
2023/12/04 01:21:06;;;;;;;14.10;6.68;;;;;;;-0.46;100.00;101380.88;6351586;28;20047;-69
2023/12/04 01:24:07;;;;;;;15.70;6.47;;;;;;;-0.46;100.00;101373.97;6351308;28;20044;-69
2023/12/04 01:27:10;;;;;;;14.57;6.22;;;;;;;-0.45;100.00;101375.72;6351712;28;20051;-69
2023/12/04 01:30:13;;;;;;;14.80;6.47;;;;;;;-0.37;100.00;101374.00;6351176;28;20109;-69
2023/12/04 01:33:15;;;;;;;14.63;5.18;;;;;;;-0.43;100.00;101374.00;6351314;28;20040;-69
2023/12/04 01:36:16;;;;;;;15.38;6.38;;;;;;;-0.46;100.00;101366.22;6351018;28;20424;-69
2023/12/04 01:39:17;;;;;;;14.15;6.38;;;;;;;-0.44;100.00;101355.94;6351358;28;20055;-68
2023/12/04 01:42:20;;;;;;;13.32;5.30;;;;;;;-0.53;100.00;101352.47;6350780;28;20051;-69
2023/12/04 01:45:21;;;;;;;15.00;6.20;;;;;;;-0.50;100.00;101354.16;6350911;28;20380;-70
2023/12/04 01:48:24;;;;;;;19.48;6.60;;;;;;;-0.44;100.00;101353.34;6350980;28;20382;-69
2023/12/04 01:51:27;;;;;;;11.80;5.60;;;;;;;-0.36;100.00;101351.66;6350652;28;20436;-69
2023/12/04 01:54:29;;;;;;;17.45;6.93;;;;;;;-0.44;100.00;101348.19;6350950;28;20055;-69
2023/12/04 01:57:32;;;;;;;16.73;5.68;;;;;;;-0.39;100.00;101347.31;6350736;28;20382;-69
2023/12/04 02:00:33;;;;;;;13.25;6.10;;;;;;;-0.42;100.00;101344.72;6350889;28;20055;-69
2023/12/04 02:03:36;;;;;;;15.40;6.30;;;;;;;-0.35;100.00;101335.28;6350205;28;20343;-69
2023/12/04 02:06:37;;;;;;;18.75;5.97;;;;;;;-0.38;100.00;101332.69;6350392;28;20347;-69
2023/12/04 02:09:38;;;;;;;15.63;5.97;;;;;;;-0.36;100.00;101329.25;6350616;28;20058;-70
2023/12/04 02:12:41;;;;;;;10.95;5.22;;;;;;;-0.38;100.00;101336.13;6350529;28;20051;-69
2023/12/04 02:15:43;;;;;;;11.32;4.85;;;;;;;-0.46;100.00;101330.09;6350143;28;20051;-69
2023/12/04 02:18:45;;;;;;;12.90;5.55;;;;;;;-0.42;100.00;101321.50;6350676;28;20058;-69
2023/12/04 02:21:46;;;;;;;9.40;4.60;;;;;;;-0.42;100.00;101320.63;6350326;28;20043;-69
2023/12/04 02:24:49;;;;;;;10.20;4.82;;;;;;;-0.48;100.00;101321.50;6350077;28;20051;-69
2023/12/04 02:27:51;;;;;;;12.27;4.35;;;;;;;-0.45;100.00;101321.50;6350071;28;20048;-69
2023/12/04 02:30:53;;;;;;;17.17;6.68;;;;;;;-0.46;100.00;101308.56;6350185;28;20051;-69
2023/12/04 02:33:57;;;;;;;8.77;4.82;;;;;;;-0.42;100.00;101307.72;6350365;28;20047;-69
2023/12/04 02:37:00;;;;;;;18.58;5.63;;;;;;;-0.43;100.00;101306.88;6350040;28;20059;-69
2023/12/04 02:40:04;;;;;;;12.10;4.82;;;;;;;-0.43;100.00;101291.38;6350410;28;20071;-69
2023/12/04 02:43:05;;;;;;;10.40;4.53;;;;;;;-0.42;100.00;101289.66;6349924;28;20052;-69
2023/12/04 02:46:07;;;;;;;9.98;4.32;;;;;;;-0.41;100.00;101289.66;6350420;28;20063;-69
2023/12/04 02:49:08;;;;;;;14.20;5.03;;;;;;;-0.37;100.00;101285.34;6350177;28;20431;-69
2023/12/04 02:52:09;;;;;;;18.80;5.63;;;;;;;-0.35;100.00;101279.34;6350226;28;20050;-69
2023/12/04 02:55:12;;;;;;;13.68;4.50;;;;;;;-0.37;100.00;101277.59;6349982;28;20047;-69
2023/12/04 02:58:13;;;;;;;14.63;4.93;;;;;;;-0.39;100.00;101269.88;6350490;28;20324;-69
2023/12/04 03:01:15;;;;;;;9.00;4.93;;;;;;;-0.32;100.00;101270.72;6350070;28;20055;-69
2023/12/04 03:04:16;;;;;;;10.40;4.80;;;;;;;-0.28;100.00;101270.72;6349691;28;20048;-70
2023/12/04 03:07:19;;;;;;;8.80;4.30;;;;;;;-0.30;100.00;101266.41;6349823;28;20380;-69
2023/12/04 03:10:22;;;;;;;10.45;4.43;;;;;;;-0.27;100.00;101266.44;6350215;28;20043;-70
2023/12/04 03:13:24;;;;;;;13.23;5.90;;;;;;;-0.30;100.00;101261.25;6349030;28;20040;-69
2023/12/04 03:16:25;;;;;;;11.40;4.22;;;;;;;-0.33;100.00;101256.94;6349610;28;20455;-69
2023/12/04 03:19:26;;;;;;;8.52;4.05;;;;;;;-0.28;100.00;101260.38;6349870;28;20047;-69
2023/12/04 03:22:28;;;;;;;11.13;4.97;;;;;;;-0.30;100.00;101258.69;6349591;28;20047;-69
2023/12/04 03:25:30;;;;;;;9.80;4.35;;;;;;;-0.28;100.00;101249.19;6340042;28;20055;-69
2023/12/04 03:28:32;;;;;;;13.60;5.53;;;;;;;-0.35;100.00;101250.06;6324078;28;20052;-69
2023/12/04 03:31:34;;;;;;;12.15;4.57;;;;;;;-0.38;100.00;101252.66;6324349;28;20051;-69
2023/12/04 03:34:35;;;;;;;12.30;4.93;;;;;;;-0.36;100.00;101241.47;6324199;28;20044;-69
2023/12/04 03:37:37;;;;;;;10.38;4.07;;;;;;;-0.40;100.00;101237.16;6324659;28;20437;-69
2023/12/04 03:40:40;;;;;;;16.08;5.70;;;;;;;-0.46;100.00;101228.53;6328713;28;20056;-69
2023/12/04 03:43:41;;;;;;;16.52;5.82;;;;;;;-0.38;100.00;101222.53;6328641;28;20047;-69
2023/12/04 03:46:42;;;;;;;11.75;5.00;;;;;;;-0.39;100.00;101219.94;6347957;28;20071;-69
2023/12/04 03:49:44;;;;;;;10.63;4.35;;;;;;;-0.36;100.00;101210.50;6354076;28;20055;-69
2023/12/04 03:52:45;;;;;;;10.43;4.65;;;;;;;-0.39;100.00;101207.91;6350325;28;20448;-69
2023/12/04 03:55:48;;;;;;;15.60;4.68;;;;;;;-0.37;100.00;101203.56;6328408;28;20055;-69
2023/12/04 03:58:49;;;;;;;12.43;4.90;;;;;;;-0.30;100.00;101207.03;6351765;28;20055;-70
2023/12/04 04:01:50;;;;;;;11.50;4.50;;;;;;;-0.25;100.00;101200.13;6353392;28;20051;-69
2023/12/04 04:04:52;;;;;;;11.88;5.07;;;;;;;-0.30;100.00;101200.13;6353496;28;20373;-69
2023/12/04 04:07:53;;;;;;;12.48;4.82;;;;;;;-0.29;100.00;101194.09;6353188;28;20351;-69
2023/12/04 04:10:56;;;;;;;12.90;6.15;;;;;;;-0.28;100.00;101189.78;6353384;28;20047;-69
2023/12/04 04:13:57;;;;;;;13.95;5.68;;;;;;;-0.24;100.00;101181.19;6353025;28;20048;-70
2023/12/04 04:16:58;;;;;;;11.68;5.35;;;;;;;-0.26;100.00;101175.19;6353453;28;20336;-68
2023/12/04 04:20:00;;;;;;;16.00;6.25;;;;;;;-0.24;100.00;101181.19;6353086;28;20047;-68
2023/12/04 04:23:01;;;;;;;17.25;5.88;;;;;;;-0.33;100.00;101182.06;6353046;28;20039;-68
2023/12/04 04:26:04;;;;;;;12.00;4.70;;;;;;;-0.36;100.00;101184.66;6353178;28;20047;-70
2023/12/04 04:29:05;;;;;;;11.25;4.72;;;;;;;-0.31;100.00;101182.94;6352041;28;20055;-70
2023/12/04 04:32:07;;;;;;;14.02;5.15;;;;;;;-0.40;100.00;101175.19;6352722;28;20161;-70
2023/12/04 04:35:09;;;;;;;14.70;6.32;;;;;;;-0.40;100.00;101175.19;6340625;28;20485;-69
2023/12/04 04:38:10;;;;;;;13.45;5.47;;;;;;;-0.36;100.00;101176.91;6334477;27;20364;-70
2023/12/04 04:41:15;;;;;;;13.95;4.93;;;;;;;-0.39;100.00;101181.22;6331060;28;20130;-70
2023/12/04 04:44:17;;;;;;;15.77;5.85;;;;;;;-0.33;100.00;101170.88;6338253;28;20052;-70
2023/12/04 04:47:18;;;;;;;10.73;4.75;;;;;;;-0.32;100.00;101170.00;6339395;28;20568;-71
2023/12/04 04:50:19;;;;;;;14.20;5.72;;;;;;;-0.33;100.00;101160.53;6334743;28;20051;-70
2023/12/04 04:53:21;;;;;;;12.30;5.20;;;;;;;-0.41;100.00;101155.41;6326804;28;20063;-70
2023/12/04 04:56:24;;;;;;;11.32;5.28;;;;;;;-0.42;100.00;101145.94;6326394;28;20340;-68
2023/12/04 04:59:25;;;;;;;11.73;5.10;;;;;;;-0.36;100.00;101158.00;6337674;28;20047;-69
2023/12/04 05:02:26;;;;;;;13.48;5.90;;;;;;;-0.39;100.00;101143.34;6342032;27;20073;-69
2023/12/04 05:05:27;;;;;;;12.68;4.95;;;;;;;-0.44;100.00;101150.25;6351819;28;20371;-69
2023/12/04 05:08:29;;;;;;;13.25;5.55;;;;;;;-0.43;100.00;101153.69;6332280;28;20047;-69
2023/12/04 05:11:31;;;;;;;13.43;5.55;;;;;;;-0.52;100.00;101144.22;6339262;28;20433;-69
2023/12/04 05:14:33;;;;;;;11.00;5.47;;;;;;;-0.46;100.00;101140.78;6338759;27;20103;-69
2023/12/04 05:17:34;;;;;;;13.15;5.70;;;;;;;-0.40;100.00;101140.78;6338288;28;20344;-69
2023/12/04 05:20:35;;;;;;;12.13;5.47;;;;;;;-0.41;100.00;101139.94;6338508;28;20043;-69
2023/12/04 05:23:37;;;;;;;15.82;5.68;;;;;;;-0.49;100.00;101138.22;6338426;28;20040;-69
2023/12/04 05:26:39;;;;;;;16.33;5.82;;;;;;;-0.52;100.00;101121.84;6337815;28;20325;-69
2023/12/04 05:29:41;;;;;;;10.63;5.35;;;;;;;-0.38;100.00;101120.97;6339079;28;20059;-69
2023/12/04 05:32:42;;;;;;;12.43;5.78;;;;;;;-0.36;100.00;101116.69;6337342;28;20051;-69
2023/12/04 05:35:43;;;;;;;15.63;5.68;;;;;;;-0.49;100.00;101104.66;6338852;28;20075;-69
2023/12/04 05:38:45;;;;;;;12.40;5.32;;;;;;;-0.43;100.00;101108.06;6336630;28;20462;-69
2023/12/04 05:41:47;;;;;;;15.25;5.82;;;;;;;-0.41;100.00;101102.91;6339098;28;20059;-69
2023/12/04 05:44:49;;;;;;;15.85;6.00;;;;;;;-0.39;100.00;101107.19;6325235;28;20040;-69
2023/12/04 05:47:50;;;;;;;14.02;5.93;;;;;;;-0.44;100.00;101102.94;6325147;28;20044;-69
2023/12/04 05:50:51;;;;;;;17.55;5.80;;;;;;;-0.45;100.00;101098.63;6325185;28;20052;-69
2023/12/04 05:53:53;;;;;;;20.95;6.15;;;;;;;-0.48;100.00;101099.47;6324766;28;20351;-69
2023/12/04 05:56:55;;;;;;;14.32;5.72;;;;;;;-0.41;100.00;101101.19;6325283;28;20043;-69
2023/12/04 05:59:57;;;;;;;12.45;5.45;;;;;;;-0.33;100.00;101086.53;6325001;28;20420;-69
2023/12/04 06:02:58;;;;;;;11.27;5.45;;;;;;;-0.29;100.00;101095.97;6324561;28;20100;-69
2023/12/04 06:06:00;;;;;;;20.98;6.13;;;;;;;-0.39;100.00;101091.72;6325015;28;20043;-69
2023/12/04 06:09:01;;;;;;;13.73;5.60;;;;;;;-0.31;100.00;101083.94;6325393;28;20051;-69
2023/12/04 06:12:08;;;;;;;12.60;5.97;;;;;;;-0.17;100.00;101081.31;6325199;28;20066;-69
2023/12/04 06:15:10;;;;;;;23.15;6.97;;;;;;;-0.25;100.00;101081.34;6324948;28;20048;-69
2023/12/04 06:18:11;;;;;;;18.23;6.75;;;;;;;-0.32;100.00;101074.47;6325290;28;20193;-69
2023/12/04 06:21:12;;;;;;;15.95;6.78;;;;;;;-0.29;100.00;101077.03;6328526;28;20040;-69
2023/12/04 06:24:15;;;;;;;14.75;5.85;;;;;;;-0.38;100.00;101077.94;6350244;28;20039;-69
2023/12/04 06:27:20;;;;;;;14.95;6.78;;;;;;;-0.32;100.00;101074.47;6350331;28;20052;-69
2023/12/04 06:30:22;;;;;;;16.80;6.18;;;;;;;-0.23;100.00;101078.75;6350618;28;20051;-69
2023/12/04 06:33:23;;;;;;;13.35;4.97;;;;;;;-0.28;100.00;101071.88;6350213;28;20055;-70
2023/12/04 06:36:26;;;;;;;17.30;7.07;;;;;;;-0.27;100.00;101070.16;6350386;28;20073;-70
2023/12/04 06:39:33;;;;;;;9.95;5.43;;;;;;;-0.22;100.00;101067.56;6350285;28;20047;-69
2023/12/04 06:42:36;;;;;;;16.13;5.55;;;;;;;-0.26;100.00;101072.75;6350285;28;20051;-70
2023/12/04 06:45:38;;;;;;;20.40;7.55;;;;;;;-0.24;100.00;101072.72;6349980;28;20044;-70
2023/12/04 06:48:40;;;;;;;13.50;6.10;;;;;;;-0.21;100.00;101070.13;6350484;28;20052;-70
2023/12/04 06:51:41;;;;;;;11.48;5.45;;;;;;;-0.16;100.00;101063.22;6350164;28;20052;-70
2023/12/04 06:54:42;;;;;;;22.58;6.55;;;;;;;-0.17;100.00;101066.69;6349889;28;20054;-71
2023/12/04 06:57:45;;;;;;;11.60;5.63;;;;;;;-0.17;100.00;101066.69;6350165;28;20137;-70
2023/12/04 07:00:48;;;;;;;19.42;7.22;;;;;;;-0.23;100.00;101055.50;6349883;28;20047;-70
2023/12/04 07:03:49;;;;;;;13.93;5.15;;;;;;;-0.24;100.00;101069.28;6332720;28;20151;-69
2023/12/04 07:06:51;;;;;;;17.33;6.30;;;;;;;-0.32;100.00;101067.59;6324397;28;20055;-71
2023/12/04 07:09:52;;;;;;;25.77;7.00;;;;;;;-0.39;100.00;101062.47;6333906;28;20460;-70
2023/12/04 07:12:55;;;;;;;12.98;5.70;;;;;;;-0.32;100.00;101064.13;6337217;28;20043;-70
2023/12/04 07:15:56;;;;;;;11.57;4.85;;;;;;;-0.32;100.00;101059.88;6341612;28;20055;-69
2023/12/04 07:18:57;;;;;;;13.43;6.40;;;;;;;-0.24;100.00;101058.94;6341618;28;20448;-73
2023/12/04 07:21:59;;;;;;;19.70;6.25;;;;;;;-0.20;100.00;101058.09;6339910;28;20054;-70
2023/12/04 07:25:00;;;;;;;16.13;6.25;;;;;;;-0.24;100.00;101053.78;6341557;28;20043;-70
2023/12/04 07:28:03;;;;;;;13.43;5.70;;;;;;;-0.27;100.00;101057.25;6341584;28;20055;-70
2023/12/04 07:31:05;;;;;;;15.52;6.35;;;;;;;-0.29;100.00;101049.50;6341783;28;20048;-70
2023/12/04 07:34:06;;;;;;;15.80;6.15;;;;;;;-0.18;100.00;101049.47;6339647;28;20047;-70
2023/12/04 07:37:08;;;;;;;16.20;5.95;;;;;;;-0.18;100.00;101057.22;6340890;28;20455;-70
2023/12/04 07:40:10;;;;;;;16.23;6.20;;;;;;;-0.07;100.00;101057.16;6330714;28;20052;-73
2023/12/04 07:43:14;;;;;;;13.13;5.63;;;;;;;-0.08;100.00;101060.63;6328740;28;20095;-70
2023/12/04 07:46:15;;;;;;;17.88;6.63;;;;;;;-0.02;100.00;101056.25;6328673;28;20189;-69
2023/12/04 07:49:17;;;;;;;14.13;5.47;;;;;;;0.07;100.00;101052.78;6328912;28;20120;-70
2023/12/04 07:52:18;;;;;;;13.65;5.93;;;;;;;0.03;100.00;101047.63;6328450;28;20440;-69
2023/12/04 07:55:20;;;;;;;13.85;5.55;;;;;;;0.09;100.00;101047.59;6336386;28;20054;-70
2023/12/04 07:58:22;;;;;;;15.70;5.85;;;;;;;0.14;100.00;101051.03;6348609;28;20043;-70
2023/12/04 08:01:24;;;;;;;13.40;5.75;;;;;;;0.10;100.00;101050.19;6348818;28;20067;-70
2023/12/04 08:04:26;;;;;;;12.95;5.78;;;;;;;0.00;100.00;101048.53;6342470;28;20559;-70
2023/12/04 08:07:27;;;;;;;13.35;5.70;;;;;;;0.04;100.00;101047.63;6344517;28;20076;-71
2023/12/04 08:10:28;;;;;;;12.48;4.93;;;;;;;0.12;100.00;101043.28;6353252;28;20044;-71
2023/12/04 08:13:31;;;;;;;14.00;5.53;;;;;;;0.15;100.00;101052.75;6347049;28;20127;-70
2023/12/04 08:16:33;;;;;;;10.50;4.18;;;;;;;0.24;100.00;101053.53;6342712;27;20051;-70
2023/12/04 08:19:34;;;;;;;10.90;4.90;;;;;;;0.30;100.00;101042.31;6342133;28;20039;-70
2023/12/04 08:22:36;;;;;;;12.02;5.53;;;;;;;0.25;100.00;101042.34;6343257;28;20152;-70
2023/12/04 08:25:38;;;;;;;12.32;5.38;;;;;;;0.23;100.00;101038.06;6338219;27;20340;-70
2023/12/04 08:28:42;;;;;;;13.00;5.72;;;;;;;0.35;100.00;101035.38;6339390;28;20044;-70
2023/12/04 08:31:43;;;;;;;10.65;4.93;;;;;;;0.24;100.00;101039.78;6343597;28;20105;-70
2023/12/04 08:34:44;;;;;;;13.65;4.97;;;;;;;0.17;100.00;101032.91;6337799;28;20039;-70
2023/12/04 08:37:46;;;;;;;14.48;5.15;;;;;;;0.19;100.00;101033.78;6341637;28;20052;-70
2023/12/04 08:40:47;;;;;;;10.00;4.68;;;;;;;0.24;100.00;101025.13;6341376;28;20351;-70
2023/12/04 08:43:50;;;;;;;10.55;5.03;;;;;;;0.27;100.00;101029.38;6338442;28;20086;-71
2023/12/04 08:46:51;;;;;;;10.82;5.13;;;;;;;0.33;100.00;101021.63;6343190;28;20363;-70
2023/12/04 08:49:53;;;;;;;10.48;5.28;;;;;;;0.35;100.00;101024.19;6346285;28;20428;-70
2023/12/04 08:52:55;;;;;;;11.68;5.25;;;;;;;0.40;100.00;101027.59;6347007;22;20453;-72
2023/12/04 08:55:57;;;;;;;10.55;4.57;;;;;;;0.45;100.00;101023.22;6251201;28;20049;-72
2023/12/04 08:59:00;;;;;;;11.60;5.22;;;;;;;0.54;100.00;101024.91;6271310;28;20048;-73
2023/12/04 09:02:03;;;;;;;11.38;4.75;;;;;;;0.46;100.00;101028.41;6270587;28;20055;-74
2023/12/04 09:05:05;;;;;;;14.32;5.63;;;;;;;0.46;100.00;101022.41;6250854;28;20056;-74
2023/12/04 09:08:07;;;;;;;15.32;6.45;;;;;;;0.50;100.00;101019.78;6251731;28;20041;-73
2023/12/04 09:11:08;;;;;;;13.43;4.43;;;;;;;0.61;100.00;101017.09;6251297;28;20572;-74
2023/12/04 09:14:11;;;;;;;9.77;4.90;;;;;;;0.74;100.00;101007.50;6251593;28;20430;-73
2023/12/04 09:17:13;;;;;;;16.08;5.65;;;;;;;0.80;100.00;101009.16;6251252;28;20049;-73
2023/12/04 09:20:14;;;;;;;10.35;4.90;;;;;;;0.76;100.00;101008.34;6251819;28;20050;-72
2023/12/04 09:23:15;;;;;;;9.43;4.30;;;;;;;0.77;100.00;101007.47;6251295;28;20060;-73
2023/12/04 09:26:17;;;;;;;10.63;5.30;;;;;;;0.78;100.00;101014.38;6249007;28;20363;-73
2023/12/04 09:29:23;;;;;;;9.88;3.92;;;;;;;0.76;100.00;101008.34;6237864;28;20042;-72
2023/12/04 09:32:25;;;;;;;9.27;4.90;;;;;;;0.63;100.00;100998.97;6250427;28;20052;-73
2023/12/04 09:35:26;;;;;;;12.30;4.32;;;;;;;0.73;100.00;101001.47;6249516;28;20045;-72
2023/12/04 09:38:27;;;;;;;8.77;3.97;;;;;;;0.75;100.00;100998.88;6250157;28;20442;-71
2023/12/04 09:41:29;;;;;;;12.38;5.13;;;;;;;0.87;100.00;101000.50;6251255;28;20058;-71
2023/12/04 09:44:33;;;;;;;13.70;5.22;;;;;;;0.86;100.00;100991.00;6243236;28;20046;-73
2023/12/04 09:47:35;;;;;;;13.38;4.65;;;;;;;0.94;100.00;100995.22;6237696;28;20049;-70
2023/12/04 09:50:37;;;;;;;13.75;5.03;;;;;;;0.99;100.00;100996.03;6239530;28;20057;-72
2023/12/04 09:53:40;;;;;;;14.40;5.00;;;;;;;1.05;100.00;100983.94;6234238;28;20046;-71
2023/12/04 09:56:42;;;;;;;8.73;3.97;;;;;;;1.06;100.00;100980.47;6240276;28;20045;-72
2023/12/04 09:59:45;;;;;;;9.35;4.43;;;;;;;1.04;100.00;100977.03;6239176;28;20439;-72
2023/12/04 10:02:47;;;;;;;9.82;4.43;;;;;;;1.06;100.00;100977.88;6233487;28;20060;-71
2023/12/04 10:05:49;;;;;;;13.98;5.32;;;;;;;1.10;100.00;100977.81;6240341;28;20053;-71
2023/12/04 10:08:51;;;;;;;9.82;4.50;;;;;;;1.10;100.00;100979.56;6237936;28;20056;-70
2023/12/04 10:11:53;;;;;;;11.63;4.55;;;;;;;1.11;100.00;100969.19;6238329;28;20374;-72
2023/12/04 10:15:06;;;;;;;10.50;4.70;;;;;;;1.18;100.00;100959.59;6236519;28;20060;-71
2023/12/04 10:18:31;;;;;;;14.60;5.70;;;;;;;1.26;100.00;100956.06;6236502;28;20056;-71
2023/12/04 10:21:33;;;;;;;13.05;5.38;;;;;;;1.29;100.00;100946.56;6226084;28;20056;-71
2023/12/04 10:24:35;;;;;;;12.60;5.30;;;;;;;1.23;100.00;100940.59;6225541;28;20046;-70
2023/12/04 10:27:37;;;;;;;10.07;4.80;;;;;;;1.17;100.00;100932.00;6227221;28;20054;-71
2023/12/04 10:30:40;;;;;;;6.13;3.45;;;;;;;1.33;100.00;100930.97;6249122;28;20061;-72
2023/12/04 10:33:41;;;;;;;12.02;4.65;;;;;;;1.46;100.00;100931.69;6250068;28;20053;-71
2023/12/04 10:36:45;;;;;;;11.13;5.40;;;;;;;1.44;100.00;100934.25;6249795;28;20053;-71
2023/12/04 10:39:48;;;;;;;10.10;4.53;;;;;;;1.31;100.00;100919.75;6226152;28;20060;-71
2023/12/04 10:42:50;;;;;;;9.93;4.93;;;;;;;1.18;100.00;100913.00;6247378;28;20064;-72
2023/12/04 10:45:54;;;;;;;10.80;4.85;;;;;;;1.14;100.00;100916.53;6250195;28;20046;-71
2023/12/04 10:48:58;;;;;;;11.73;4.50;;;;;;;1.08;100.00;100914.84;6250794;28;20131;-70
2023/12/04 10:52:01;;;;;;;11.70;4.45;;;;;;;1.11;100.00;100901.03;6255008;28;20045;-70
2023/12/04 10:55:02;;;;;;;13.35;5.05;;;;;;;1.09;100.00;100900.19;6254532;28;20358;-72
2023/12/04 10:58:09;;;;;;;11.55;4.85;;;;;;;1.27;100.00;100902.53;6255389;28;20140;-73
2023/12/04 11:01:13;;;;;;;10.85;5.18;;;;;;;1.16;100.00;100886.31;6255039;28;20096;-71
2023/12/04 11:04:20;;;;;;;12.07;5.43;;;;;;;1.18;100.00;100890.59;6233007;28;20053;-71
2023/12/04 11:07:23;;;;;;;11.07;5.28;;;;;;;1.11;100.00;100880.34;6229636;28;20319;-72
2023/12/04 11:10:26;;;;;;;12.65;4.63;;;;;;;1.26;100.00;100874.97;6230153;28;20061;-71
2023/12/04 11:13:29;;;;;;;10.45;5.07;;;;;;;1.20;100.00;100870.72;6229708;28;20366;-74
2023/12/04 11:16:36;;;;;;;13.70;5.18;;;;;;;1.31;100.00;100861.94;6229549;28;20053;-71
2023/12/04 11:19:44;;;;;;;14.23;4.75;;;;;;;1.37;100.00;100862.75;6230107;28;20434;-71
2023/12/04 11:22:46;;;;;;;10.07;5.00;;;;;;;1.31;100.00;100859.38;6229555;28;20050;-71
2023/12/04 11:25:48;;;;;;;11.18;4.93;;;;;;;1.30;100.00;100855.06;6229645;28;20046;-71
2023/12/04 11:28:50;;;;;;;10.95;5.25;;;;;;;1.27;100.00;100850.78;6236140;28;20140;-71
2023/12/04 11:31:52;;;;;;;10.15;4.32;;;;;;;1.31;100.00;100849.84;6254260;28;20054;-71
2023/12/04 11:34:56;;;;;;;12.43;4.97;;;;;;;1.22;100.00;100844.81;6253844;28;20049;-71
2023/12/04 11:37:57;;;;;;;9.00;4.50;;;;;;;1.32;100.00;100838.66;6254127;28;20140;-71
2023/12/04 11:40:59;;;;;;;9.80;4.82;;;;;;;1.27;100.00;100838.72;6253863;28;20060;-71
2023/12/04 11:44:00;;;;;;;11.90;5.53;;;;;;;1.14;100.00;100829.41;6253783;28;20049;-70
2023/12/04 11:47:06;;;;;;;11.00;4.88;;;;;;;1.12;100.00;100825.09;6250052;28;20052;-70
2023/12/04 11:50:09;;;;;;;11.68;5.35;;;;;;;1.16;100.00;100822.47;6253711;28;20053;-70
2023/12/04 11:53:13;;;;;;;9.85;4.40;;;;;;;1.19;100.00;100822.44;6253395;28;20355;-70
2023/12/04 11:56:16;;;;;;;10.02;4.53;;;;;;;1.09;100.00;100819.97;6253334;28;20124;-73
2023/12/04 11:59:17;;;;;;;10.45;5.47;;;;;;;1.14;100.00;100813.88;6247448;28;20049;-72
2023/12/04 12:02:21;;;;;;;11.88;4.85;;;;;;;1.16;100.00;100814.69;6251816;28;20060;-72
2023/12/04 12:05:22;;;;;;;9.77;4.28;;;;;;;1.26;100.00;100805.06;6244635;28;20042;-70
2023/12/04 12:08:24;;;;;;;13.65;5.72;;;;;;;1.29;100.00;100815.38;6253095;28;20045;-70
2023/12/04 12:11:26;;;;;;;14.05;5.28;;;;;;;1.21;100.00;100809.47;6253426;28;20136;-70
2023/12/04 12:14:29;;;;;;;9.00;4.60;;;;;;;1.28;100.00;100805.91;6252962;28;20136;-72
2023/12/04 12:17:31;;;;;;;9.95;4.60;;;;;;;1.32;100.00;100802.41;6253465;28;20438;-73
2023/12/04 12:20:33;;;;;;;11.40;4.50;;;;;;;1.26;100.00;100799.88;6251303;28;20049;-71
2023/12/04 12:23:34;;;;;;;17.00;4.45;;;;;;;1.17;100.00;100795.69;6247523;28;20199;-70
2023/12/04 12:26:36;;;;;;;9.23;4.35;;;;;;;1.16;100.00;100795.72;6249761;28;20168;-72
2023/12/04 12:29:37;;;;;;;11.30;4.63;;;;;;;1.25;100.00;100790.41;6245850;28;20046;-72
2023/12/04 12:32:40;;;;;;;10.70;5.22;;;;;;;1.26;100.00;100787.78;6251453;28;20056;-72
2023/12/04 12:35:42;;;;;;;10.77;4.10;;;;;;;1.33;100.00;100778.22;6252280;28;20045;-72
2023/12/04 12:38:49;;;;;;;10.13;4.05;;;;;;;1.34;100.00;100771.31;6252460;28;20513;-72
2023/12/04 12:41:51;;;;;;;9.73;4.28;;;;;;;1.33;100.00;100762.69;6250272;28;20056;-71
2023/12/04 12:44:53;;;;;;;12.30;5.18;;;;;;;1.38;100.00;100758.28;6248227;28;20072;-71
2023/12/04 12:47:57;;;;;;;10.90;5.15;;;;;;;1.42;100.00;100756.53;6245875;28;20049;-71
2023/12/04 12:50:58;;;;;;;9.75;4.18;;;;;;;1.45;100.00;100741.81;6252173;28;20060;-71
2023/12/04 12:53:59;;;;;;;9.02;4.32;;;;;;;1.45;100.00;100748.69;6251429;28;20056;-71
2023/12/04 12:57:02;;;;;;;11.13;4.93;;;;;;;1.39;100.00;100741.88;6252137;28;20346;-71
2023/12/04 13:00:05;;;;;;;13.30;4.88;;;;;;;1.27;100.00;100739.47;6252049;28;20374;-72
2023/12/04 13:03:15;;;;;;;7.93;4.07;;;;;;;1.32;100.00;100731.63;6251866;28;20057;-72
2023/12/04 13:06:17;;;;;;;9.52;4.10;;;;;;;1.31;100.00;100732.50;6251531;28;20037;-72
2023/12/04 13:09:20;;;;;;;10.57;4.90;;;;;;;1.39;100.00;100728.94;6251870;28;20084;-72
2023/12/04 13:12:22;;;;;;;10.68;4.55;;;;;;;1.42;100.00;100738.41;6251528;28;20454;-72
2023/12/04 13:15:23;;;;;;;12.65;4.57;;;;;;;1.27;100.00;100737.75;6249463;28;20045;-72
2023/12/04 13:18:26;;;;;;;8.45;3.90;;;;;;;1.31;100.00;100728.19;6246854;28;20061;-72
2023/12/04 13:21:28;;;;;;;9.15;4.05;;;;;;;1.29;100.00;100726.53;6248295;28;20045;-71
2023/12/04 13:24:29;;;;;;;10.40;4.57;;;;;;;1.29;100.00;100726.53;6245006;28;20060;-72
2023/12/04 13:27:31;;;;;;;11.38;4.72;;;;;;;1.35;100.00;100729.84;6251263;28;20056;-71
2023/12/04 13:30:34;;;;;;;11.00;4.82;;;;;;;1.32;100.00;100727.34;6242735;28;20351;-73
2023/12/04 13:33:36;;;;;;;9.13;4.15;;;;;;;1.30;100.00;100718.72;6248891;28;20046;-71
2023/12/04 13:36:38;;;;;;;8.70;3.80;;;;;;;1.32;100.00;100710.91;6251063;28;20068;-71
2023/12/04 13:39:47;;;;;;;11.60;4.63;;;;;;;1.27;100.00;100711.88;6230930;28;20054;-72
2023/12/04 13:46:09;;;;;;;18.02;5.07;;;;;;;1.29;100.00;100708.41;6241417;28;20120;-70
2023/12/04 13:49:12;;;;;;;11.07;4.18;;;;;;;1.24;100.00;100691.22;6226610;28;20192;-69
2023/12/04 13:52:13;;;;;;;11.15;4.20;;;;;;;1.20;100.00;100686.94;6226061;28;20061;-69
2023/12/04 13:55:19;;;;;;;10.00;5.00;;;;;;;1.16;100.00;100676.66;6226524;28;20049;-71
2023/12/04 13:58:42;;;;;;;9.25;4.10;;;;;;;1.14;100.00;100676.72;6226527;28;20050;-70